Kirksville, MO

4:04 PM CST on December 10, 2016 (GMT -0600)
Kirksville Regional | | Change Station

Elev 965 ft 40.10 °N, 92.55 °W | Updated 1 hour ago

Overcast
Overcast
30 °F
Feels Like 20 °F
N
14
Wind Variable Wind from SSE

Today
High -- | Low -- °F
--% Chance of Precip.
Yesterday
High -- | Low -- °F
Precip. -- in
Pressure 30.32 in
Visibility 10.0 miles
Clouds Overcast 4200 ft
Windchill 20 °F
Dew Point 15 °F
Humidity 54%
Rainfall 0.00 in
Snow Depth Not available.
7:22 AM 4:44 PM
Waxing Gibbous, 86% visible
METAR KIRK 102055Z AUTO 15012KT 10SM OVC042 M01/M09 A3027 RMK AO2 SLP268 T10111094 56038
Pressure 30.32 in
Visibility 10.0 miles
Clouds Overcast 4200 ft
Windchill 20 °F
Dew Point 15 °F
Humidity 54%
Rainfall 0.00 in
Snow Depth Not available.
7:22 AM 4:44 PM
Waxing Gibbous, 86% visible
METAR KIRK 102055Z AUTO 15012KT 10SM OVC042 M01/M09 A3027 RMK AO2 SLP268 T10111094 56038

10-Day Weather Forecast

Almanac

Astronomy

Dec. 10, 2016 Rise Set
Actual Time
Civil Twilight
Nautical Twilight
Astronomical Twilight
Moon
Length of Visible Light
Length of Day
Tomorrow will be .
, % of the Moon is Illuminated

Today's Extremes

State Highs State Lows

Community

WunderPhotos

Upload Photos

1,956,673 photos uploaded!

WunderBlog® & News

Nearby

Air Quality

  Air Quality AQ Index Pollutant
Not available.

Snow Depth

Station Depth Elevation

Earthquake Activity

City Distance Mag. Time & Date
Minimum magnitude displayed is 2.5.

Coastal Water Temperatures

Place Temperature

Stations

Nearby Weather Stations

Station Location Temp. Windchill Dew Point Humidity Wind Precip. Elev Updated Type
                   

Watches & Warnings

There are currently no watches in effect.